Time;durP1;ratioP1;P1;durP2;ratioP2;P2;SDS_P1;SDS_P2;PMS_P1;PMS_P2;Temp;Humidity;BMP_temperature;BMP_pressure;BME280_temperature;BME280_humidity;BME280_pressure;Samples;Min_cycle;Max_cycle;Signal;HPM_P1;HPM_P2
2023/06/01 00:00:29;;;;;;;0.73;0.30;;;;;;;16.05;53.26;101440.41;15610117;28;20041;-48
2023/06/01 00:08:04;;;;;;;0.75;0.35;;;;;;;16.09;53.44;101436.19;15622307;28;20132;-50
2023/06/01 00:15:39;;;;;;;0.20;0.10;;;;;;;16.05;53.77;101453.94;15665944;28;20044;-49
2023/06/01 00:23:12;;;;;;;0.63;0.50;;;;;;;16.07;53.84;101441.00;15651720;28;20053;-49
2023/06/01 00:30:47;;;;;;;0.40;0.40;;;;;;;15.94;53.96;101442.00;15645567;28;20098;-52
2023/06/01 00:38:20;;;;;;;2.85;1.20;;;;;;;15.66;55.17;101442.56;15623499;28;20065;-53
2023/06/01 00:45:54;;;;;;;1.15;0.55;;;;;;;15.66;55.42;101442.56;15635117;28;20029;-52
2023/06/01 00:53:28;;;;;;;0.30;0.30;;;;;;;15.37;56.61;101437.88;15614472;28;20545;-53
2023/06/01 01:01:02;;;;;;;;;;;;;;;15.36;57.15;101437.06;15632661;28;20037;-49
2023/06/01 01:08:47;;;;;;;3.25;0.85;;;;;;;15.07;58.59;101433.19;15645368;28;19924;-49
2023/06/01 01:16:28;;;;;;;6.78;0.43;;;;;;;15.12;59.20;101427.13;15633272;28;20081;-49
2023/06/01 01:24:26;;;;;;;0.93;0.45;;;;;;;15.23;59.61;101429.09;15625500;28;20076;-54
2023/06/01 01:32:03;;;;;;;1.83;0.60;;;;;;;15.11;60.10;101433.56;15610200;28;20441;-53
2023/06/01 01:39:36;;;;;;;4.15;0.25;;;;;;;14.76;61.47;101436.81;15648114;28;20056;-53
2023/06/01 01:47:20;;;;;;;7.03;0.60;;;;;;;15.07;60.57;101425.09;15632350;28;20072;-52
2023/06/01 01:54:54;;;;;;;0.40;0.30;;;;;;;14.85;61.90;101421.13;15654403;28;20395;-51
2023/06/01 02:02:28;;;;;;;0.28;0.28;;;;;;;15.17;60.88;101414.59;15609541;28;20506;-50
2023/06/01 02:10:02;;;;;;;0.82;0.47;;;;;;;15.21;60.60;101415.78;15644515;28;20037;-51
2023/06/01 02:17:37;;;;;;;0.40;0.28;;;;;;;14.76;62.37;101415.19;15660927;28;20049;-47
2023/06/01 02:25:10;;;;;;;1.08;0.60;;;;;;;14.42;63.84;101411.91;15644126;28;20099;-48
2023/06/01 02:32:45;;;;;;;3.87;0.47;;;;;;;14.04;65.23;101411.94;15658097;28;20643;-50
2023/06/01 02:40:19;;;;;;;0.90;0.85;;;;;;;13.94;65.36;101419.66;15638140;28;20512;-50
2023/06/01 02:47:54;;;;;;;0.63;0.43;;;;;;;13.59;66.80;101419.22;15633017;28;20056;-53
2023/06/01 02:55:27;;;;;;;0.60;0.50;;;;;;;13.95;65.82;101418.66;15611299;28;20045;-54
2023/06/01 03:03:38;;;;;;;1.48;0.70;;;;;;;13.62;66.75;101418.81;15614267;28;20060;-49
2023/06/01 03:11:14;;;;;;;3.20;1.63;;;;;;;13.56;66.73;101414.25;15629944;28;20037;-51
2023/06/01 03:18:48;;;;;;;0.97;0.70;;;;;;;13.70;66.39;101422.06;15654956;28;20228;-52
2023/06/01 03:26:24;;;;;;;3.13;1.70;;;;;;;13.23;68.43;101425.97;15654661;28;20040;-53
2023/06/01 03:33:58;;;;;;;1.00;0.52;;;;;;;13.31;67.83;101435.69;15639441;28;20045;-53
2023/06/01 03:41:32;;;;;;;5.28;1.05;;;;;;;13.20;68.94;101432.56;15655467;28;20122;-50
2023/06/01 03:49:06;;;;;;;2.10;1.63;;;;;;;12.92;69.18;101427.44;15625042;28;20139;-50
2023/06/01 03:56:40;;;;;;;3.70;1.80;;;;;;;13.44;68.02;101425.69;15627184;28;20056;-53
2023/06/01 04:04:16;;;;;;;4.93;1.33;;;;;;;12.92;69.32;101418.53;15594307;28;20041;-52
2023/06/01 04:11:49;;;;;;;3.33;0.70;;;;;;;13.02;69.48;101414.34;15627610;28;20061;-50
2023/06/01 04:19:24;;;;;;;8.48;2.33;;;;;;;13.25;68.48;101413.94;15645901;28;20049;-52
2023/06/01 04:27:07;;;;;;;10.70;1.45;;;;;;;12.92;69.38;101418.53;15634664;28;20556;-49
2023/06/01 04:34:42;;;;;;;3.13;1.52;;;;;;;12.76;70.36;101425.16;15639082;28;20045;-52
2023/06/01 04:42:16;;;;;;;1.33;1.23;;;;;;;12.78;70.25;101436.56;15652213;28;20029;-49
2023/06/01 04:49:51;;;;;;;4.43;1.33;;;;;;;12.92;69.45;101435.53;15647135;28;20417;-52
2023/06/01 04:57:24;;;;;;;3.40;1.80;;;;;;;13.03;69.29;101429.50;15654288;28;20690;-52
2023/06/01 05:04:59;;;;;;;1.52;1.27;;;;;;;13.18;68.99;101431.94;15654498;28;20041;-50
2023/06/01 05:12:32;;;;;;;4.13;2.08;;;;;;;12.85;69.74;101436.56;15652321;28;20096;-49
2023/06/01 05:20:08;;;;;;;4.03;1.48;;;;;;;12.51;70.00;101425.78;15660794;28;20045;-49
2023/06/01 05:27:42;;;;;;;2.53;1.85;;;;;;;12.43;70.15;101423.28;15658817;28;20064;-54
2023/06/01 05:35:17;;;;;;;1.55;1.27;;;;;;;12.29;70.82;101434.25;15617096;28;20045;-52
2023/06/01 05:42:51;;;;;;;2.03;1.50;;;;;;;12.21;70.57;101437.94;15660532;28;20037;-49
2023/06/01 05:50:28;;;;;;;1.87;1.20;;;;;;;12.29;69.59;101443.13;15657030;28;20037;-49
2023/06/01 05:58:01;;;;;;;3.08;1.42;;;;;;;12.88;66.78;101442.38;15652120;28;20038;-53
2023/06/01 06:05:36;;;;;;;4.30;1.33;;;;;;;12.92;65.85;101442.78;15611207;28;20041;-49
2023/06/01 06:13:09;;;;;;;1.10;0.73;;;;;;;12.61;66.86;101438.84;15661841;28;20128;-48
2023/06/01 06:20:43;;;;;;;1.67;0.87;;;;;;;13.89;62.75;101432.97;15662190;28;20049;-49
2023/06/01 06:28:15;;;;;;;2.47;1.20;;;;;;;14.13;62.67;101431.41;15633798;28;20100;-49
2023/06/01 06:35:50;;;;;;;4.65;0.80;;;;;;;13.82;62.45;101424.94;15650182;28;20037;-52
2023/06/01 06:43:23;;;;;;;1.13;0.77;;;;;;;14.43;59.80;101432.44;15661466;28;20053;-51
2023/06/01 06:50:58;;;;;;;2.28;0.75;;;;;;;15.24;58.12;101442.38;15653525;28;20040;-47
2023/06/01 06:58:33;;;;;;;3.33;1.42;;;;;;;14.59;58.96;101439.22;15678106;28;20072;-51
2023/06/01 07:06:07;;;;;;;2.63;0.97;;;;;;;15.66;56.42;101434.44;15652595;28;20041;-50
2023/06/01 07:13:40;;;;;;;1.45;0.85;;;;;;;14.40;57.64;101440.97;15655714;28;20129;-53
2023/06/01 07:21:17;;;;;;;3.20;1.23;;;;;;;13.99;59.29;101438.78;15663312;28;20106;-52
2023/06/01 08:33:56;;;;;;;3.85;1.80;;;;;;;18.50;47.35;101405.09;15612013;28;20045;-52
2023/06/01 08:42:54;;;;;;;2.33;1.15;;;;;;;19.32;45.40;101388.13;15818225;27;20185;-50
2023/06/01 08:50:27;;;;;;;;;;;;;;;20.07;44.50;101390.09;15795613;28;20097;-51
2023/06/01 08:58:02;;;;;;;4.13;1.90;;;;;;;20.13;45.35;101378.16;15797814;28;19941;-49
2023/06/01 09:05:34;;;;;;;2.60;1.75;;;;;;;20.65;42.26;101382.16;15792296;28;20129;-51
2023/06/01 09:13:08;;;;;;;5.75;2.35;;;;;;;21.03;42.59;101363.84;15793458;28;20141;-49
2023/06/01 09:20:44;;;;;;;9.23;2.40;;;;;;;21.61;41.38;101349.09;15788742;28;20066;-49
2023/06/01 09:28:18;;;;;;;3.58;1.83;;;;;;;21.83;41.62;101359.81;15781510;28;20078;-49
2023/06/01 09:35:52;;;;;;;3.17;2.13;;;;;;;21.66;40.60;101345.56;15797138;28;20068;-50
2023/06/01 09:43:29;;;;;;;4.30;1.95;;;;;;;21.22;41.18;101339.66;15794731;28;20432;-47
2023/06/01 09:51:02;;;;;;;7.00;2.95;;;;;;;21.59;40.40;101336.78;15740952;28;20127;-49
2023/06/01 09:58:39;;;;;;;3.88;1.92;;;;;;;22.42;39.64;101331.97;15743816;28;20401;-53
2023/06/01 10:06:13;;;;;;;7.68;2.13;;;;;;;23.02;37.91;101293.81;15747875;28;20077;-53
2023/06/01 10:13:48;;;;;;;2.15;1.60;;;;;;;22.95;38.87;101297.97;15738028;28;20437;-48
2023/06/01 10:21:22;;;;;;;4.20;1.80;;;;;;;21.87;40.96;101281.66;15734595;28;20501;-49
2023/06/01 10:28:56;;;;;;;2.75;1.55;;;;;;;22.48;41.23;101301.91;15752182;28;20652;-55
2023/06/01 10:37:03;;;;;;;4.32;1.25;;;;;;;23.68;38.07;101277.03;15753482;28;20070;-55
2023/06/01 10:44:48;;;;;;;4.68;1.17;;;;;;;23.61;36.46;101292.13;15751119;28;20055;-53
2023/06/01 10:52:29;;;;;;;3.80;1.42;;;;;;;24.01;35.62;101279.25;15730745;28;20516;-52
2023/06/01 11:00:17;;;;;;;3.35;1.65;;;;;;;24.18;35.67;101279.66;15747517;28;20036;-54
2023/06/01 11:07:50;;;;;;;2.05;1.08;;;;;;;23.78;37.47;101280.78;15742688;28;20052;-55
2023/06/01 11:15:25;;;;;;;3.28;0.95;;;;;;;24.45;37.61;101270.09;15744483;28;20036;-55
2023/06/01 11:22:57;;;;;;;2.80;1.00;;;;;;;24.78;35.43;101265.63;15731483;28;20110;-52
2023/06/01 11:30:31;;;;;;;1.52;0.70;;;;;;;24.09;34.12;101260.25;15752619;28;20036;-53
2023/06/01 11:38:04;;;;;;;3.45;1.10;;;;;;;23.15;37.79;101234.88;15746660;28;20045;-52
2023/06/01 11:45:38;;;;;;;0.80;0.68;;;;;;;26.01;34.42;101234.44;15749451;28;20074;-52
2023/06/01 11:53:11;;;;;;;2.30;1.25;;;;;;;25.66;33.48;101228.41;15736987;28;20517;-53
2023/06/01 12:00:46;;;;;;;0.85;0.65;;;;;;;26.88;32.58;101228.13;15744115;28;20115;-51
2023/06/01 12:08:21;;;;;;;0.60;0.47;;;;;;;27.04;30.55;101220.31;15747766;28;20040;-54
2023/06/01 12:15:55;;;;;;;1.35;0.68;;;;;;;27.85;29.43;101212.94;15739171;28;20052;-54
2023/06/01 12:23:29;;;;;;;4.55;0.80;;;;;;;26.61;30.81;101199.47;15735648;28;20047;-55
2023/06/01 12:31:12;;;;;;;1.10;0.85;;;;;;;27.25;31.46;101193.16;15737080;28;20075;-52
2023/06/01 12:38:51;;;;;;;2.40;1.10;;;;;;;27.57;29.50;101181.09;15747475;28;20044;-54
2023/06/01 12:46:27;;;;;;;4.32;0.85;;;;;;;25.48;33.02;101190.78;15742111;28;20114;-55
2023/06/01 12:53:59;;;;;;;2.05;0.90;;;;;;;27.58;31.25;101186.28;15742099;28;20130;-52
2023/06/01 13:01:33;;;;;;;2.00;0.93;;;;;;;27.68;29.04;101180.50;15741653;28;20117;-55
2023/06/01 13:09:07;;;;;;;2.63;1.38;;;;;;;25.74;32.92;101181.00;15739345;28;20048;-55
2023/06/01 13:16:41;;;;;;;7.93;1.50;;;;;;;26.38;32.00;101171.00;15736591;28;20090;-54
2023/06/01 13:24:16;;;;;;;10.13;2.45;;;;;;;25.32;33.52;101169.03;15713339;28;20056;-55
2023/06/01 13:31:51;;;;;;;5.78;3.38;;;;;;;25.70;34.45;101160.72;15754533;28;20113;-55
2023/06/01 13:39:24;;;;;;;13.20;4.60;;;;;;;25.37;33.41;101155.22;15750170;28;20048;-55
2023/06/01 13:46:58;;;;;;;11.05;5.15;;;;;;;25.55;33.78;101150.78;15744413;28;20051;-51
2023/06/01 13:54:31;;;;;;;6.38;2.72;;;;;;;25.27;34.70;101152.59;15753939;28;20657;-53
2023/06/01 14:02:06;;;;;;;6.97;1.70;;;;;;;25.30;34.52;101149.28;15746114;28;20386;-53
2023/06/01 14:09:40;;;;;;;2.25;1.38;;;;;;;25.37;33.63;101144.22;15747663;28;20041;-55
2023/06/01 14:17:14;;;;;;;2.33;1.13;;;;;;;24.30;35.98;101137.44;15744418;28;20048;-54
2023/06/01 14:24:47;;;;;;;1.40;0.93;;;;;;;24.37;34.99;101132.41;15744117;28;20059;-51
2023/06/01 14:32:21;;;;;;;3.72;0.98;;;;;;;24.22;35.48;101132.59;15751233;28;20420;-54
2023/06/01 14:39:54;;;;;;;3.17;0.75;;;;;;;24.07;34.95;101124.53;15755880;28;20422;-52
2023/06/01 14:47:28;;;;;;;2.90;0.50;;;;;;;24.19;32.80;101131.22;15741535;28;20036;-52
2023/06/01 14:55:00;;;;;;;1.13;0.70;;;;;;;24.04;32.99;101116.88;15751129;28;20040;-52
2023/06/01 15:02:36;;;;;;;0.90;0.40;;;;;;;24.31;33.86;101108.06;15745624;28;20135;-53
2023/06/01 15:10:10;;;;;;;2.47;0.82;;;;;;;23.52;32.95;101110.25;15746011;28;20116;-56
2023/06/01 15:17:44;;;;;;;1.02;0.63;;;;;;;23.20;35.92;101091.63;15741322;28;20049;-54
2023/06/01 15:25:17;;;;;;;0.88;0.50;;;;;;;23.02;35.42;101091.19;15740165;28;20048;-54
2023/06/01 15:32:51;;;;;;;3.72;0.93;;;;;;;23.07;36.96;101082.94;15746150;28;20097;-52
2023/06/01 15:40:24;;;;;;;4.28;0.98;;;;;;;23.73;35.67;101087.03;15751371;28;20086;-53
2023/06/01 15:47:59;;;;;;;1.65;0.63;;;;;;;23.25;36.56;101084.16;15736833;28;20068;-56
2023/06/01 15:55:31;;;;;;;0.57;0.50;;;;;;;22.58;36.48;101086.53;15748280;28;20177;-54
2023/06/01 16:03:06;;;;;;;1.35;0.63;;;;;;;23.01;36.74;101072.31;15741790;28;20040;-51
2023/06/01 16:10:38;;;;;;;2.47;0.73;;;;;;;22.43;37.30;101078.41;15743202;28;20039;-52
2023/06/01 16:18:12;;;;;;;2.10;0.73;;;;;;;22.42;36.46;101068.53;15739676;28;20041;-54
2023/06/01 16:25:45;;;;;;;0.22;0.22;;;;;;;21.88;37.66;101067.38;15731037;28;20052;-52
2023/06/01 16:33:20;;;;;;;0.95;0.63;;;;;;;22.32;36.16;101061.22;15755319;22;20051;-50
2023/06/01 16:40:56;;;;;;;2.28;0.80;;;;;;;22.47;35.03;101049.38;15749645;28;20048;-52
2023/06/01 16:48:31;;;;;;;1.20;0.57;;;;;;;21.59;36.29;101058.13;15741467;28;20140;-50
2023/06/01 16:56:04;;;;;;;1.75;0.73;;;;;;;21.82;36.53;101060.28;15743166;28;20040;-51
2023/06/01 17:03:41;;;;;;;1.63;0.90;;;;;;;21.74;36.73;101046.38;15748363;28;20074;-50
2023/06/01 17:11:17;;;;;;;1.23;0.52;;;;;;;21.64;37.20;101058.16;15752603;28;20041;-50
2023/06/01 17:18:51;;;;;;;2.55;1.10;;;;;;;21.26;36.45;101057.59;15748785;28;20040;-51
2023/06/01 17:26:25;;;;;;;1.63;1.15;;;;;;;21.33;36.67;101052.72;15746908;28;20123;-48
2023/06/01 17:33:59;;;;;;;0.65;0.60;;;;;;;21.01;38.64;101057.59;15751146;28;20489;-50
2023/06/01 17:41:32;;;;;;;1.08;0.88;;;;;;;20.68;38.83;101059.75;15755327;28;20525;-49
2023/06/01 17:49:06;;;;;;;;;;;;;;;20.74;38.30;101058.66;15751747;28;20094;-47
2023/06/01 17:56:42;;;;;;;0.80;0.40;;;;;;;20.70;39.86;101054.84;15752329;28;20011;-50
2023/06/01 18:04:16;;;;;;;;;;;;;;;20.36;41.14;101049.81;15748154;28;20055;-53
2023/06/01 18:11:49;;;;;;;2.05;0.77;;;;;;;19.76;41.93;101051.19;15748214;28;20022;-53
2023/06/01 18:19:24;;;;;;;;;;;;;;;20.15;41.75;101050.03;15744651;28;20463;-50
2023/06/01 18:26:57;;;;;;;1.83;0.65;;;;;;;20.12;42.50;101048.63;15742231;28;20391;-49
2023/06/01 18:34:31;;;;;;;0.57;0.30;;;;;;;19.90;41.99;101056.97;15749056;28;20070;-52
2023/06/01 18:42:04;;;;;;;1.40;0.85;;;;;;;19.38;44.12;101074.88;15749139;28;20040;-50
2023/06/01 18:49:41;;;;;;;3.50;1.00;;;;;;;19.36;43.85;101077.03;15752855;28;20051;-54
2023/06/01 18:57:14;;;;;;;1.00;0.47;;;;;;;19.05;44.85;101088.75;15745947;28;20056;-49
2023/06/01 19:04:48;;;;;;;1.08;0.73;;;;;;;19.09;44.39;101085.25;15743843;28;20472;-47
2023/06/01 19:12:23;;;;;;;0.52;0.38;;;;;;;18.85;44.64;101076.59;15742939;28;20040;-48
2023/06/01 19:19:57;;;;;;;0.82;0.60;;;;;;;18.74;45.13;101093.03;15741162;28;20068;-53
2023/06/01 19:27:31;;;;;;;0.70;0.63;;;;;;;18.57;46.05;101104.81;15740203;28;20060;-47
2023/06/01 19:35:08;;;;;;;1.00;0.60;;;;;;;18.72;45.81;101109.63;15730329;28;20539;-49
2023/06/01 19:42:41;;;;;;;2.30;1.13;;;;;;;17.80;47.78;101111.13;15753830;28;20044;-50
2023/06/01 19:50:44;;;;;;;0.90;0.40;;;;;;;17.63;48.00;101128.50;15749631;28;20041;-47
2023/06/01 19:58:18;;;;;;;0.75;0.55;;;;;;;17.68;47.72;101134.81;15743002;28;20043;-49
2023/06/01 20:05:53;;;;;;;2.83;0.73;;;;;;;17.58;48.43;101146.34;15751808;28;20136;-49
2023/06/01 20:13:25;;;;;;;1.90;0.82;;;;;;;17.33;48.96;101145.91;15740164;28;20565;-49
2023/06/01 20:21:00;;;;;;;4.05;0.52;;;;;;;17.17;49.37;101144.00;15738285;28;20051;-50
2023/06/01 20:28:48;;;;;;;5.45;0.68;;;;;;;16.68;50.21;101135.44;15735022;28;20064;-51
2023/06/01 20:36:27;;;;;;;1.27;0.70;;;;;;;16.89;50.30;101140.25;15733542;28;20053;-51
2023/06/01 20:44:01;;;;;;;1.02;0.40;;;;;;;16.50;51.10;101158.13;15740752;28;20584;-48
2023/06/01 20:51:37;;;;;;;0.85;0.57;;;;;;;16.27;51.66;101150.84;15729271;28;20052;-48
2023/06/01 20:59:11;;;;;;;0.93;0.55;;;;;;;16.10;51.88;101155.38;15738952;28;20535;-51
2023/06/01 21:06:47;;;;;;;1.05;0.60;;;;;;;15.93;52.14;101145.25;15741443;28;20048;-48
2023/06/01 21:14:21;;;;;;;1.25;0.90;;;;;;;15.88;52.58;101166.78;15735630;28;20080;-48
2023/06/01 21:21:55;;;;;;;4.05;0.75;;;;;;;15.78;53.04;101182.78;15736835;28;20486;-48
2023/06/01 21:29:28;;;;;;;5.38;0.98;;;;;;;15.73;53.15;101188.91;15734187;28;20131;-49
2023/06/01 21:37:02;;;;;;;0.73;0.53;;;;;;;15.74;53.22;101200.53;15749133;28;20071;-51
2023/06/01 21:44:35;;;;;;;0.90;0.50;;;;;;;15.27;54.67;101205.81;15743327;28;20299;-50
2023/06/01 21:52:09;;;;;;;0.40;0.40;;;;;;;15.39;54.60;101203.13;15755877;28;20048;-50
2023/06/01 21:59:42;;;;;;;1.17;0.50;;;;;;;15.28;54.84;101212.88;15747744;28;20865;-49
2023/06/01 22:07:17;;;;;;;7.97;0.53;;;;;;;14.98;55.86;101210.16;15748332;28;20143;-51
2023/06/01 22:14:50;;;;;;;0.63;0.50;;;;;;;15.14;55.23;101217.63;15745345;28;20913;-49
2023/06/01 22:22:26;;;;;;;1.75;0.80;;;;;;;14.49;57.11;101196.59;15743970;28;20067;-49
2023/06/01 22:29:59;;;;;;;0.32;0.30;;;;;;;14.70;56.40;101214.25;15741341;28;20048;-47
2023/06/01 22:37:33;;;;;;;0.97;0.67;;;;;;;14.84;55.97;101220.31;15757093;28;20076;-46
2023/06/01 22:45:07;;;;;;;0.47;0.30;;;;;;;14.54;56.41;101225.63;15747150;28;20083;-48
2023/06/01 22:52:43;;;;;;;1.38;0.52;;;;;;;14.09;57.75;101228.56;15744257;28;20064;-51
2023/06/01 23:00:16;;;;;;;1.08;0.55;;;;;;;14.46;57.03;101240.25;15743985;28;20049;-49
2023/06/01 23:07:51;;;;;;;;;;;;;;;13.90;58.72;101243.88;15746193;28;20044;-46
2023/06/01 23:15:24;;;;;;;1.52;0.57;;;;;;;14.05;57.83;101251.63;15745072;28;20390;-46
2023/06/01 23:22:58;;;;;;;1.37;0.80;;;;;;;13.57;59.83;101267.53;15744825;28;20048;-47
2023/06/01 23:30:31;;;;;;;18.00;0.85;;;;;;;13.49;59.66;101269.47;15741121;28;20302;-46
2023/06/01 23:38:10;;;;;;;4.30;1.30;;;;;;;13.41;59.88;101272.41;15754283;28;20040;-46
2023/06/01 23:45:43;;;;;;;0.65;0.65;;;;;;;13.53;59.41;101264.47;15744863;28;20389;-46
2023/06/01 23:53:17;;;;;;;0.50;0.47;;;;;;;13.08;60.58;101266.31;15748314;28;20052;-47
